Metar z połowy godziny Komunikat METAR ze strony awiacja.imgw.pl Metar G00 EPSY METAR EPSY 230830Z 27013KT 250V320 CAVOK 06/M01 Q1016=